createdAt,value
2019-05-03T00:02:24.891Z,8.75
2019-05-03T00:04:51.659Z,9.27
2019-05-03T00:07:16.406Z,9.37
2019-05-03T00:09:42.626Z,9.52
2019-05-03T00:12:07.260Z,9.35
2019-05-03T00:14:32.552Z,8.90
2019-05-03T00:16:57.050Z,8.97
2019-05-03T00:19:21.999Z,9.27
2019-05-03T00:21:46.614Z,9.17
2019-05-03T00:24:11.879Z,9.27
2019-05-03T00:26:36.437Z,9.20
2019-05-03T00:29:02.188Z,9.00
2019-05-03T00:31:26.738Z,8.91
2019-05-03T00:33:52.928Z,9.06
2019-05-03T00:36:37.177Z,8.66
2019-05-03T00:39:03.378Z,8.71
2019-05-03T00:41:27.860Z,8.76
2019-05-03T00:43:52.364Z,9.42
2019-05-03T00:46:16.971Z,8.45
2019-05-03T00:48:43.006Z,8.21
2019-05-03T00:51:07.916Z,8.76
2019-05-03T00:53:32.486Z,8.33
2019-05-03T00:55:56.976Z,8.37
2019-05-03T00:58:22.459Z,8.73
2019-05-03T01:00:47.125Z,8.46
2019-05-03T01:03:12.551Z,8.35
2019-05-03T01:05:37.220Z,8.09
2019-05-03T01:08:02.041Z,7.86
2019-05-03T01:10:26.737Z,8.07
2019-05-03T01:12:52.284Z,7.78
2019-05-03T01:15:18.650Z,8.15
2019-05-03T01:17:43.142Z,8.48
2019-05-03T01:20:08.148Z,8.30
2019-05-03T01:22:32.663Z,8.04
2019-05-03T01:24:57.284Z,7.70
2019-05-03T01:27:22.116Z,7.58
2019-05-03T01:29:46.646Z,7.60
2019-05-03T01:32:11.578Z,7.89
2019-05-03T01:34:36.136Z,7.72
2019-05-03T01:37:02.439Z,7.62
2019-05-03T01:39:26.861Z,7.67
2019-05-03T01:41:51.917Z,7.48
2019-05-03T01:44:16.803Z,7.61
2019-05-03T01:46:42.198Z,7.42
2019-05-03T01:49:08.369Z,7.98
2019-05-03T01:51:34.582Z,7.73
2019-05-03T01:53:59.048Z,7.61
2019-05-03T01:56:23.589Z,7.16
2019-05-03T01:58:48.128Z,7.42
2019-05-03T02:01:32.251Z,7.51
2019-05-03T02:04:12.258Z,7.88
2019-05-03T02:06:36.952Z,7.03
2019-05-03T02:09:01.683Z,7.08
2019-05-03T02:11:26.181Z,6.88
2019-05-03T02:13:52.207Z,7.15
2019-05-03T02:16:16.761Z,7.12
2019-05-03T02:18:42.420Z,7.08
2019-05-03T02:21:06.985Z,7.13
2019-05-03T02:23:31.955Z,7.23
2019-05-03T02:25:59.245Z,7.49
2019-05-03T02:28:22.892Z,7.17
2019-05-03T02:30:47.379Z,6.97
2019-05-03T02:33:13.385Z,6.62
2019-05-03T02:35:38.299Z,6.75
2019-05-03T02:38:03.498Z,7.19
2019-05-03T02:40:28.583Z,6.79
2019-05-03T02:43:06.734Z,6.70
2019-05-03T02:45:31.574Z,6.79
2019-05-03T02:47:57.696Z,6.46
2019-05-03T02:50:22.211Z,6.62
2019-05-03T02:52:46.873Z,6.53
2019-05-03T02:55:15.631Z,6.68
2019-05-03T02:57:39.010Z,6.69
2019-05-03T03:00:05.718Z,6.55
2019-05-03T03:02:30.847Z,6.45
2019-05-03T03:04:56.323Z,6.58
2019-05-03T03:07:21.748Z,6.75
2019-05-03T03:09:47.184Z,6.59
2019-05-03T03:12:15.125Z,6.57
2019-05-03T03:14:40.268Z,6.37
2019-05-03T03:17:06.874Z,6.32
2019-05-03T03:19:35.155Z,6.46
2019-05-03T03:22:05.843Z,6.16
2019-05-03T03:24:31.895Z,6.42
2019-05-03T03:26:58.958Z,6.14
2019-05-03T03:29:26.485Z,6.37
2019-05-03T03:31:57.885Z,6.40
2019-05-03T03:34:28.161Z,6.33
2019-05-03T03:37:00.807Z,6.43
2019-05-03T03:39:20.249Z,6.69
2019-05-03T03:41:47.282Z,6.37
2019-05-03T03:44:15.316Z,6.28
2019-05-03T03:46:41.607Z,6.14
2019-05-03T03:49:07.429Z,5.87
2019-05-03T03:51:35.065Z,6.07
2019-05-03T03:54:01.502Z,5.87
2019-05-03T03:56:29.036Z,5.92
2019-05-03T03:58:55.575Z,5.38
2019-05-03T04:01:20.675Z,5.63
2019-05-03T04:03:46.161Z,5.74
2019-05-03T04:06:10.905Z,5.50
2019-05-03T04:08:36.379Z,5.65
2019-05-03T04:11:01.453Z,5.67
2019-05-03T04:13:26.689Z,5.85
2019-05-03T04:15:52.984Z,5.92
2019-05-03T04:18:19.261Z,6.07
2019-05-03T04:20:45.829Z,5.75
2019-05-03T04:23:10.641Z,5.63
2019-05-03T04:25:35.857Z,5.75
2019-05-03T04:28:00.469Z,5.81
2019-05-03T04:30:25.755Z,5.84
2019-05-03T04:32:50.616Z,5.83
2019-05-03T04:35:16.337Z,5.81
2019-05-03T04:37:41.121Z,6.11
2019-05-03T04:40:06.875Z,6.00
2019-05-03T04:42:31.355Z,5.61
2019-05-03T04:44:56.473Z,6.02
2019-05-03T04:47:21.093Z,5.85
2019-05-03T04:49:46.319Z,5.92
2019-05-03T04:52:10.946Z,6.00
2019-05-03T04:54:37.225Z,5.78
2019-05-03T04:57:01.698Z,5.75
2019-05-03T04:59:26.157Z,5.73
2019-05-03T05:01:50.691Z,5.84
2019-05-03T05:04:16.146Z,5.84
2019-05-03T05:06:40.753Z,6.20
2019-05-03T05:09:07.951Z,5.99
2019-05-03T05:11:34.931Z,5.85
2019-05-03T05:13:58.573Z,6.07
2019-05-03T05:16:25.125Z,6.16
2019-05-03T05:18:50.922Z,5.79
2019-05-03T05:21:17.180Z,5.85
2019-05-03T05:23:49.138Z,5.84
2019-05-03T05:26:17.938Z,5.85
2019-05-03T05:28:49.874Z,6.03
2019-05-03T05:31:15.188Z,6.00
2019-05-03T05:33:39.797Z,6.49
2019-05-03T05:36:04.844Z,6.45
2019-05-03T05:38:29.362Z,6.27
2019-05-03T05:40:55.485Z,6.31
2019-05-03T05:43:20.305Z,6.28
2019-05-03T05:45:45.030Z,6.21
2019-05-03T05:48:26.419Z,6.51
2019-05-03T05:50:50.862Z,6.63
2019-05-03T05:53:15.470Z,6.70
2019-05-03T05:55:41.632Z,6.84
2019-05-03T05:58:10.831Z,6.82
2019-05-03T06:00:39.758Z,7.00
2019-05-03T06:03:05.124Z,7.13
2019-05-03T06:05:29.850Z,6.95
2019-05-03T06:07:56.032Z,7.26
2019-05-03T06:10:25.283Z,7.61
2019-05-03T06:12:54.515Z,7.02
2019-05-03T06:15:34.516Z,7.18
2019-05-03T06:18:00.787Z,7.62
2019-05-03T06:20:26.918Z,7.81
2019-05-03T06:22:54.871Z,8.16
2019-05-03T06:25:21.013Z,7.68
2019-05-03T06:27:45.611Z,7.83
2019-05-03T06:30:12.651Z,7.56
2019-05-03T06:32:38.772Z,7.16
2019-05-03T06:35:04.930Z,7.26
2019-05-03T06:37:36.980Z,7.69
2019-05-03T06:40:01.479Z,7.61
2019-05-03T06:42:25.932Z,7.79
2019-05-03T06:44:50.478Z,8.00
2019-05-03T06:47:15.102Z,7.86
2019-05-03T06:49:44.933Z,7.80
2019-05-03T06:52:06.003Z,7.57
2019-05-03T06:54:30.475Z,8.13
2019-05-03T06:56:55.585Z,7.81
2019-05-03T06:59:21.783Z,7.75
2019-05-03T07:01:50.899Z,8.19
2019-05-03T07:04:17.011Z,8.32
2019-05-03T07:06:48.910Z,8.09
2019-05-03T07:09:25.017Z,7.83
2019-05-03T07:11:49.811Z,7.89
2019-05-03T07:14:15.570Z,8.36
2019-05-03T07:16:40.318Z,8.18
2019-05-03T07:19:04.868Z,8.50
2019-05-03T07:21:29.379Z,8.53
2019-05-03T07:23:55.140Z,8.89
2019-05-03T07:26:19.765Z,8.52
2019-05-03T07:28:47.735Z,8.53
2019-05-03T07:31:10.400Z,8.43
2019-05-03T07:33:35.938Z,8.99
2019-05-03T07:36:00.484Z,9.09
2019-05-03T07:38:25.267Z,8.90
2019-05-03T07:40:49.792Z,9.00
2019-05-03T07:43:14.853Z,8.98
2019-05-03T07:45:39.572Z,8.75
2019-05-03T07:48:04.694Z,8.80
2019-05-03T07:50:29.352Z,9.10
2019-05-03T07:52:55.552Z,8.81
2019-05-03T07:55:21.617Z,9.53
2019-05-03T07:57:47.889Z,9.73
2019-05-03T08:00:14.940Z,9.12
2019-05-03T08:02:39.772Z,9.42
2019-05-03T08:05:06.120Z,8.94
2019-05-03T08:07:30.563Z,8.65
2019-05-03T08:09:55.520Z,9.40
2019-05-03T08:12:20.274Z,10.04
2019-05-03T08:14:44.763Z,9.61
2019-05-03T08:17:09.294Z,9.30
2019-05-03T08:19:35.822Z,9.12
2019-05-03T08:22:00.094Z,9.44
2019-05-03T08:24:25.291Z,10.02
2019-05-03T08:26:49.890Z,10.28
2019-05-03T08:29:18.565Z,9.92
2019-05-03T08:31:51.100Z,9.75
2019-05-03T08:34:26.154Z,9.57
2019-05-03T08:36:58.348Z,9.95
2019-05-03T08:39:25.265Z,10.65
2019-05-03T08:41:50.730Z,9.92
2019-05-03T08:44:15.251Z,9.95
2019-05-03T08:46:39.740Z,9.74
2019-05-03T08:49:05.246Z,9.39
2019-05-03T08:51:29.860Z,9.42
2019-05-03T08:53:55.979Z,9.53
2019-05-03T08:56:20.586Z,9.45
2019-05-03T08:58:45.252Z,10.32
2019-05-03T09:01:09.751Z,10.01
2019-05-03T09:03:36.393Z,9.86
2019-05-03T09:06:00.461Z,9.65
2019-05-03T09:08:25.060Z,10.01
2019-05-03T09:10:56.988Z,10.07
2019-05-03T09:13:22.506Z,9.60
2019-05-03T09:15:48.608Z,10.06
2019-05-03T09:18:16.854Z,9.28
2019-05-03T09:20:39.600Z,9.78
2019-05-03T09:23:05.465Z,9.83
2019-05-03T09:25:30.182Z,9.66
2019-05-03T09:27:55.204Z,9.43
2019-05-03T09:30:20.785Z,9.60
2019-05-03T09:32:45.331Z,9.73
2019-05-03T09:35:27.181Z,9.84
2019-05-03T09:37:39.112Z,9.87
2019-05-03T09:40:04.568Z,10.08
2019-05-03T09:42:29.015Z,9.73
2019-05-03T09:44:55.432Z,9.46
2019-05-03T09:47:19.723Z,9.99
2019-05-03T09:49:45.403Z,9.63
2019-05-03T09:52:10.046Z,9.41
2019-05-03T09:54:36.122Z,9.56
2019-05-03T09:57:00.598Z,9.29
2019-05-03T09:59:31.766Z,9.60
2019-05-03T10:01:56.414Z,9.09
2019-05-03T10:04:20.943Z,9.18
2019-05-03T10:06:45.417Z,8.50
2019-05-03T10:09:09.871Z,8.98
2019-05-03T10:11:35.136Z,8.91
2019-05-03T10:13:59.777Z,8.95
2019-05-03T10:16:25.874Z,8.67
2019-05-03T10:18:50.319Z,8.96
2019-05-03T10:21:15.040Z,9.04
2019-05-03T10:23:39.813Z,9.64
2019-05-03T10:26:05.130Z,10.21
2019-05-03T10:28:29.754Z,9.66
2019-05-03T10:30:54.769Z,11.24
2019-05-03T10:33:20.963Z,10.73
2019-05-03T10:35:45.568Z,10.08
2019-05-03T10:38:10.198Z,10.47
2019-05-03T10:40:35.753Z,11.91
2019-05-03T10:43:01.710Z,11.44
2019-05-03T10:45:28.110Z,11.20
2019-05-03T10:47:52.411Z,11.08
2019-05-03T10:50:17.003Z,10.61
2019-05-03T10:52:48.837Z,9.92
2019-05-03T10:55:15.719Z,10.03
2019-05-03T10:57:41.388Z,9.18
2019-05-03T11:00:39.332Z,9.43
2019-05-03T11:02:39.195Z,9.70
2019-05-03T11:05:05.243Z,10.01
2019-05-03T11:07:29.951Z,10.44
2019-05-03T11:09:55.095Z,10.65
2019-05-03T11:12:19.767Z,11.17
2019-05-03T11:14:45.514Z,11.95
2019-05-03T11:17:10.475Z,12.48
2019-05-03T11:19:35.040Z,12.16
2019-05-03T11:21:59.639Z,11.98
2019-05-03T11:24:27.308Z,12.44
2019-05-03T11:26:52.021Z,12.95
2019-05-03T11:29:16.631Z,12.56
2019-05-03T11:31:48.667Z,12.39
2019-05-03T11:34:18.313Z,12.20
2019-05-03T11:37:01.494Z,11.55
2019-05-03T11:39:25.946Z,11.34
2019-05-03T11:41:54.912Z,10.50
2019-05-03T11:44:37.785Z,9.81
2019-05-03T11:47:02.255Z,9.62
2019-05-03T11:49:26.728Z,9.97
2019-05-03T11:51:51.256Z,9.80
2019-05-03T11:54:16.696Z,9.99
2019-05-03T11:56:41.726Z,9.79
2019-05-03T11:59:06.255Z,9.74
2019-05-03T12:01:32.446Z,9.68
2019-05-03T12:03:57.227Z,10.11
2019-05-03T12:06:21.758Z,10.42
2019-05-03T12:08:46.356Z,10.60
2019-05-03T12:11:10.887Z,10.93
2019-05-03T12:13:35.370Z,11.19
2019-05-03T12:16:00.821Z,11.31
2019-05-03T12:18:26.273Z,11.37
2019-05-03T12:20:52.418Z,11.35
2019-05-03T12:23:18.147Z,11.83
2019-05-03T12:25:45.750Z,11.54
2019-05-03T12:28:09.358Z,12.44
2019-05-03T12:30:35.577Z,10.82
2019-05-03T12:33:00.239Z,11.21
2019-05-03T12:35:24.792Z,10.77
2019-05-03T12:37:49.253Z,10.68
2019-05-03T12:40:14.916Z,10.93
2019-05-03T12:42:39.566Z,11.29
2019-05-03T12:45:04.700Z,11.47
2019-05-03T12:47:29.214Z,11.35
2019-05-03T12:49:55.755Z,11.67
2019-05-03T12:52:20.591Z,11.76
2019-05-03T12:54:45.612Z,12.35
2019-05-03T12:57:10.603Z,12.77
2019-05-03T12:59:36.787Z,13.26
2019-05-03T13:02:09.150Z,12.61
2019-05-03T13:04:38.075Z,13.16
2019-05-03T13:07:14.835Z,12.45
2019-05-03T13:09:39.364Z,11.79
2019-05-03T13:12:05.572Z,11.98
2019-05-03T13:14:30.304Z,12.00
2019-05-03T13:16:55.235Z,11.61
2019-05-03T13:19:19.727Z,11.54
2019-05-03T13:21:45.050Z,11.24
2019-05-03T13:24:22.492Z,10.55
2019-05-03T13:26:35.940Z,10.60
2019-05-03T13:29:00.489Z,11.07
2019-05-03T13:31:25.186Z,10.77
2019-05-03T13:33:49.730Z,11.49
2019-05-03T13:36:15.192Z,11.65
2019-05-03T13:38:39.757Z,11.66
2019-05-03T13:41:06.473Z,11.91
2019-05-03T13:43:31.216Z,11.15
2019-05-03T13:45:55.846Z,11.20
2019-05-03T13:48:21.191Z,11.50
2019-05-03T13:50:46.574Z,11.46
2019-05-03T13:53:11.046Z,11.27
2019-05-03T13:55:35.623Z,11.73
2019-05-03T13:58:00.104Z,12.04
2019-05-03T14:00:24.834Z,11.93
2019-05-03T14:02:49.344Z,11.78
2019-05-03T14:05:15.490Z,12.10
2019-05-03T14:07:40.367Z,12.29
2019-05-03T14:10:07.798Z,12.02
2019-05-03T14:12:32.265Z,11.59
2019-05-03T14:14:56.806Z,11.53
2019-05-03T14:17:22.580Z,12.18
2019-05-03T14:19:47.315Z,12.44
2019-05-03T14:22:15.500Z,11.79
2019-05-03T14:24:39.710Z,12.12
2019-05-03T14:27:05.580Z,12.09
2019-05-03T14:29:30.258Z,12.39
2019-05-03T14:31:54.916Z,11.93
2019-05-03T14:34:19.373Z,12.34
2019-05-03T14:36:44.962Z,13.24
2019-05-03T14:39:10.503Z,11.71
2019-05-03T14:41:35.353Z,11.14
2019-05-03T14:43:59.898Z,10.78
2019-05-03T14:46:32.831Z,11.68
2019-05-03T14:48:50.718Z,11.78
2019-05-03T14:51:15.279Z,12.15
2019-05-03T14:53:39.904Z,11.73
2019-05-03T14:56:12.036Z,10.80
2019-05-03T14:58:56.027Z,11.21
2019-05-03T15:01:34.728Z,10.67
2019-05-03T15:03:59.405Z,10.67
2019-05-03T15:06:24.969Z,11.29
2019-05-03T15:08:49.600Z,12.13
2019-05-03T15:11:14.921Z,11.61
2019-05-03T15:13:39.571Z,11.42
2019-05-03T15:16:05.262Z,12.23
2019-05-03T15:18:29.858Z,11.67
2019-05-03T15:20:55.004Z,12.48
2019-05-03T15:23:19.852Z,11.59
2019-05-03T15:25:45.248Z,11.46
2019-05-03T15:28:09.800Z,11.84
2019-05-03T15:30:35.211Z,11.08
2019-05-03T15:33:01.020Z,11.23
2019-05-03T15:35:25.994Z,11.61
2019-05-03T15:37:50.617Z,11.41
2019-05-03T15:40:15.714Z,10.90
2019-05-03T15:42:42.023Z,11.38
2019-05-03T15:45:11.787Z,11.07
2019-05-03T15:47:37.930Z,10.84
2019-05-03T15:50:02.511Z,11.22
2019-05-03T15:52:27.109Z,10.83
2019-05-03T15:54:51.654Z,10.67
2019-05-03T15:57:16.131Z,10.57
2019-05-03T15:59:40.727Z,10.99
2019-05-03T16:02:05.357Z,11.31
2019-05-03T16:04:29.925Z,11.89
2019-05-03T16:06:55.450Z,11.52
2019-05-03T16:09:19.929Z,11.08
2019-05-03T16:11:45.079Z,11.59
2019-05-03T16:14:09.721Z,11.31
2019-05-03T16:16:35.405Z,11.67
2019-05-03T16:18:59.954Z,11.81
2019-05-03T16:21:25.189Z,11.73
2019-05-03T16:23:49.653Z,11.67
2019-05-03T16:26:14.387Z,10.77
2019-05-03T16:28:40.614Z,10.94
2019-05-03T16:31:06.734Z,11.19
2019-05-03T16:33:31.269Z,10.70
2019-05-03T16:35:55.745Z,10.99
2019-05-03T16:38:20.301Z,11.44
2019-05-03T16:40:45.225Z,11.15
2019-05-03T16:43:09.862Z,11.46
2019-05-03T16:45:35.016Z,10.19
2019-05-03T16:47:59.768Z,10.12
2019-05-03T16:50:25.065Z,10.09
2019-05-03T16:52:49.648Z,10.62
2019-05-03T16:55:16.308Z,10.37
2019-05-03T16:57:40.691Z,9.83
2019-05-03T17:00:07.151Z,9.99
2019-05-03T17:02:31.641Z,10.10
2019-05-03T17:05:14.669Z,10.09
2019-05-03T17:07:56.132Z,9.88
2019-05-03T17:10:25.570Z,10.10
2019-05-03T17:12:50.224Z,9.96
2019-05-03T17:15:15.021Z,10.42
2019-05-03T17:17:39.486Z,10.62
2019-05-03T17:20:07.003Z,10.71
2019-05-03T17:22:31.542Z,10.80
2019-05-03T17:24:56.048Z,10.39
2019-05-03T17:27:20.593Z,10.29
2019-05-03T17:29:45.057Z,10.21
2019-05-03T17:32:11.129Z,10.21
2019-05-03T17:34:35.722Z,10.65
2019-05-03T17:37:00.241Z,10.39
2019-05-03T17:39:42.876Z,10.79
2019-05-03T17:42:14.953Z,10.15
2019-05-03T17:44:46.820Z,10.46
2019-05-03T17:47:11.282Z,9.73
2019-05-03T17:49:35.987Z,10.18
2019-05-03T17:52:02.238Z,10.17
2019-05-03T17:54:28.434Z,9.93
2019-05-03T17:56:55.120Z,10.08
2019-05-03T17:59:19.854Z,10.27
2019-05-03T18:01:46.053Z,10.68
2019-05-03T18:04:15.754Z,10.15
2019-05-03T18:06:41.999Z,10.71
2019-05-03T18:09:15.340Z,10.59
2019-05-03T18:11:41.459Z,11.15
2019-05-03T18:14:06.032Z,10.55
2019-05-03T18:16:30.548Z,10.10
2019-05-03T18:18:55.028Z,10.24
2019-05-03T18:21:19.631Z,10.18
2019-05-03T18:23:45.557Z,10.03
2019-05-03T18:26:10.137Z,10.05
2019-05-03T18:28:35.558Z,10.11
2019-05-03T18:31:00.204Z,10.23
2019-05-03T18:33:24.847Z,10.18
2019-05-03T18:35:49.334Z,10.22
2019-05-03T18:38:14.867Z,10.33
2019-05-03T18:40:39.503Z,10.30
2019-05-03T18:43:20.659Z,10.40
2019-05-03T18:45:55.840Z,10.21
2019-05-03T18:48:20.397Z,10.11
2019-05-03T18:50:46.641Z,10.09
2019-05-03T18:53:11.386Z,10.28
2019-05-03T18:55:35.903Z,10.73
2019-05-03T18:58:00.367Z,11.03
2019-05-03T19:00:26.240Z,10.89
2019-05-03T19:02:50.996Z,11.15
2019-05-03T19:05:17.255Z,10.82
2019-05-03T19:07:45.212Z,11.00
2019-05-03T19:10:15.349Z,10.60
2019-05-03T19:12:41.644Z,10.96
2019-05-03T19:15:07.549Z,11.17
2019-05-03T19:17:36.555Z,10.53
2019-05-03T19:20:01.631Z,9.84
2019-05-03T19:22:26.159Z,10.31
2019-05-03T19:24:50.759Z,10.43
2019-05-03T19:27:15.295Z,10.09
2019-05-03T19:29:39.775Z,9.91
2019-05-03T19:32:04.647Z,9.60
2019-05-03T19:34:29.173Z,9.59
2019-05-03T19:36:54.750Z,9.77
2019-05-03T19:39:19.267Z,9.81
2019-05-03T19:41:44.868Z,9.62
2019-05-03T19:44:09.428Z,9.38
2019-05-03T19:46:35.085Z,9.35
2019-05-03T19:48:59.722Z,9.15
2019-05-03T19:51:24.188Z,8.97
2019-05-03T19:53:55.171Z,9.07
2019-05-03T19:56:19.652Z,8.89
2019-05-03T19:58:46.653Z,9.20
2019-05-03T20:01:27.162Z,8.82
2019-05-03T20:03:56.471Z,9.30
2019-05-03T20:06:22.568Z,9.18
2019-05-03T20:08:54.951Z,8.61
2019-05-03T20:11:19.509Z,8.59
2019-05-03T20:13:45.307Z,8.44
2019-05-03T20:16:09.907Z,8.62
2019-05-03T20:18:35.547Z,8.93
2019-05-03T20:21:00.100Z,8.97
2019-05-03T20:23:25.049Z,9.17
2019-05-03T20:25:49.580Z,8.87
2019-05-03T20:28:15.375Z,8.63
2019-05-03T20:30:39.981Z,9.22
2019-05-03T20:33:04.503Z,8.72
2019-05-03T20:35:29.028Z,8.89
2019-05-03T20:37:55.292Z,8.69
2019-05-03T20:40:19.860Z,8.44
2019-05-03T20:42:48.956Z,8.55
2019-05-03T20:45:15.856Z,8.51
2019-05-03T20:47:41.967Z,8.44
2019-05-03T20:50:16.912Z,8.85
2019-05-03T20:52:41.500Z,8.80
2019-05-03T20:55:06.319Z,8.92
2019-05-03T20:57:30.765Z,9.04
2019-05-03T20:59:55.248Z,8.41
2019-05-03T21:02:19.702Z,8.63
2019-05-03T21:04:44.169Z,8.68
2019-05-03T21:07:08.829Z,8.73
2019-05-03T21:09:34.535Z,8.80
2019-05-03T21:11:59.378Z,9.01
2019-05-03T21:14:24.459Z,8.87
2019-05-03T21:16:54.505Z,8.73
2019-05-03T21:19:29.736Z,8.75
2019-05-03T21:22:05.559Z,8.87
2019-05-03T21:24:34.940Z,8.33
2019-05-03T21:26:59.564Z,8.38
2019-05-03T21:29:24.058Z,8.18
2019-05-03T21:31:48.588Z,7.95
2019-05-03T21:34:14.800Z,8.29
2019-05-03T21:36:39.293Z,8.14
2019-05-03T21:39:05.913Z,8.21
2019-05-03T21:41:30.381Z,7.89
2019-05-03T21:43:54.910Z,7.78
2019-05-03T21:46:36.073Z,7.72
2019-05-03T21:49:02.175Z,7.80
2019-05-03T21:51:26.742Z,7.80
2019-05-03T21:53:51.351Z,7.53
2019-05-03T21:56:15.953Z,7.27
2019-05-03T21:58:40.412Z,7.29
2019-05-03T22:01:06.675Z,7.42
2019-05-03T22:03:31.210Z,7.34
2019-05-03T22:05:57.999Z,7.51
2019-05-03T22:08:21.877Z,7.33
2019-05-03T22:10:46.519Z,8.18
2019-05-03T22:13:10.991Z,7.79
2019-05-03T22:15:43.317Z,7.60
2019-05-03T22:18:09.547Z,7.42
2019-05-03T22:20:35.727Z,7.47
2019-05-03T22:23:07.632Z,7.76
2019-05-03T22:25:34.892Z,7.31
2019-05-03T22:27:59.356Z,7.06
2019-05-03T22:30:24.343Z,6.60
2019-05-03T22:32:50.115Z,6.99
2019-05-03T22:35:15.714Z,6.88
2019-05-03T22:37:40.327Z,6.91
2019-05-03T22:40:06.131Z,6.84
2019-05-03T22:42:30.584Z,6.83
2019-05-03T22:44:55.438Z,7.23
2019-05-03T22:47:19.936Z,7.11
2019-05-03T22:49:45.617Z,6.82
2019-05-03T22:52:10.238Z,6.86
2019-05-03T22:54:34.766Z,6.80
2019-05-03T22:56:59.269Z,6.82
2019-05-03T22:59:25.202Z,6.72
2019-05-03T23:01:49.978Z,6.88
2019-05-03T23:04:14.830Z,6.76
2019-05-03T23:06:39.384Z,6.69
2019-05-03T23:09:05.675Z,6.60
2019-05-03T23:11:30.191Z,6.68
2019-05-03T23:14:04.918Z,6.20
2019-05-03T23:16:30.952Z,6.51
2019-05-03T23:18:55.420Z,6.81
2019-05-03T23:21:21.506Z,7.17
2019-05-03T23:23:50.445Z,7.25
2019-05-03T23:26:14.929Z,6.81
2019-05-03T23:28:39.423Z,6.63
2019-05-03T23:31:05.382Z,6.83
2019-05-03T23:33:29.883Z,6.87
2019-05-03T23:35:55.163Z,6.78
2019-05-03T23:38:19.796Z,7.42
2019-05-03T23:40:44.751Z,7.07
2019-05-03T23:43:09.300Z,6.91
2019-05-03T23:45:34.769Z,7.15
2019-05-03T23:47:59.439Z,7.28
2019-05-03T23:50:24.895Z,6.97
2019-05-03T23:52:49.623Z,7.31
2019-05-03T23:55:19.212Z,7.07
2019-05-03T23:57:44.671Z,6.93
